createdAt,value
2018-09-29T00:00:53.865Z,16.30
2018-09-29T00:03:22.677Z,16.30
2018-09-29T00:05:51.495Z,16.30
2018-09-29T00:08:20.286Z,16.20
2018-09-29T00:10:49.078Z,16.20
2018-09-29T00:13:17.861Z,16.20
2018-09-29T00:15:46.659Z,16.20
2018-09-29T00:18:15.448Z,16.10
2018-09-29T00:20:44.216Z,16.20
2018-09-29T00:23:13.003Z,16.10
2018-09-29T00:25:41.828Z,16.10
2018-09-29T00:28:10.636Z,16.00
2018-09-29T00:30:39.468Z,16.00
2018-09-29T00:33:08.231Z,16.00
2018-09-29T00:35:37.036Z,16.00
2018-09-29T00:38:05.856Z,16.00
2018-09-29T00:40:34.686Z,16.00
2018-09-29T00:43:03.460Z,16.00
2018-09-29T00:45:32.277Z,16.00
2018-09-29T00:48:01.071Z,15.90
2018-09-29T00:50:29.926Z,15.80
2018-09-29T00:52:58.701Z,15.80
2018-09-29T00:55:27.486Z,15.80
2018-09-29T00:57:56.308Z,15.90
2018-09-29T01:00:25.250Z,15.90
2018-09-29T01:02:54.064Z,15.90
2018-09-29T01:05:22.936Z,15.80
2018-09-29T01:07:51.725Z,15.90
2018-09-29T01:10:20.563Z,15.80
2018-09-29T01:12:49.357Z,15.80
2018-09-29T01:15:18.196Z,15.80
2018-09-29T01:17:46.994Z,15.80
2018-09-29T01:20:15.839Z,15.90
2018-09-29T01:22:44.688Z,15.90
2018-09-29T01:25:13.512Z,15.90
2018-09-29T01:27:42.339Z,15.90
2018-09-29T01:30:11.180Z,15.90
2018-09-29T01:32:39.920Z,15.80
2018-09-29T01:35:08.732Z,15.80
2018-09-29T01:37:37.512Z,15.80
2018-09-29T01:40:06.392Z,15.80
2018-09-29T01:42:35.246Z,15.80
2018-09-29T01:45:04.066Z,15.80
2018-09-29T01:47:32.833Z,15.70
2018-09-29T01:50:01.612Z,15.70
2018-09-29T01:52:30.405Z,15.70
2018-09-29T01:54:59.220Z,15.80
2018-09-29T01:57:28.058Z,15.80
2018-09-29T01:59:56.839Z,15.70
2018-09-29T02:02:25.633Z,15.80
2018-09-29T02:04:54.912Z,15.80
2018-09-29T02:07:23.922Z,15.80
2018-09-29T02:09:52.764Z,15.80
2018-09-29T02:12:21.539Z,15.70
2018-09-29T02:14:50.443Z,15.70
2018-09-29T02:17:19.244Z,15.70
2018-09-29T02:19:48.029Z,15.70
2018-09-29T02:22:16.864Z,15.70
2018-09-29T02:24:45.617Z,15.60
2018-09-29T02:27:14.418Z,15.60
2018-09-29T02:29:43.215Z,15.60
2018-09-29T02:32:12.014Z,15.60
2018-09-29T02:34:40.828Z,15.60
2018-09-29T02:37:09.616Z,15.50
2018-09-29T02:39:38.412Z,15.50
2018-09-29T02:42:07.247Z,15.50
2018-09-29T02:44:36.044Z,15.50
2018-09-29T02:47:04.888Z,15.40
2018-09-29T02:49:33.700Z,15.30
2018-09-29T02:52:02.543Z,15.10
2018-09-29T02:54:31.332Z,15.00
2018-09-29T02:57:00.124Z,15.00
2018-09-29T02:59:28.966Z,15.10
2018-09-29T03:01:57.723Z,15.20
2018-09-29T03:04:26.524Z,15.20
2018-09-29T03:06:55.302Z,15.30
2018-09-29T03:09:24.112Z,15.20
2018-09-29T03:11:52.907Z,15.30
2018-09-29T03:14:21.737Z,15.30
2018-09-29T03:16:50.510Z,15.30
2018-09-29T03:19:19.308Z,15.30
2018-09-29T03:21:48.092Z,15.30
2018-09-29T03:24:16.937Z,15.30
2018-09-29T03:26:45.729Z,15.30
2018-09-29T03:29:14.539Z,15.30
2018-09-29T03:31:43.420Z,15.30
2018-09-29T03:34:12.189Z,15.30
2018-09-29T03:36:41.017Z,15.30
2018-09-29T03:39:11.417Z,15.30
2018-09-29T03:41:40.372Z,15.30
2018-09-29T03:44:09.717Z,15.20
2018-09-29T03:46:38.668Z,15.20
2018-09-29T03:49:07.476Z,15.20
2018-09-29T03:51:36.264Z,15.20
2018-09-29T03:54:05.050Z,15.10
2018-09-29T03:56:33.869Z,15.10
2018-09-29T03:59:02.714Z,15.10
2018-09-29T04:01:31.556Z,15.10
2018-09-29T04:04:00.346Z,15.10
2018-09-29T04:06:29.204Z,15.10
2018-09-29T04:08:57.999Z,15.10
2018-09-29T04:11:26.827Z,15.20
2018-09-29T04:13:55.675Z,15.10
2018-09-29T04:16:24.455Z,15.10
2018-09-29T04:18:53.244Z,15.10
2018-09-29T04:21:22.024Z,15.00
2018-09-29T04:23:50.791Z,14.90
2018-09-29T04:26:19.603Z,15.00
2018-09-29T04:28:48.382Z,15.00
2018-09-29T04:31:17.195Z,15.00
2018-09-29T04:33:45.988Z,15.00
2018-09-29T04:36:14.801Z,15.00
2018-09-29T04:38:43.636Z,15.00
2018-09-29T04:41:12.415Z,14.90
2018-09-29T04:43:41.189Z,14.90
2018-09-29T04:46:09.989Z,14.90
2018-09-29T04:48:38.771Z,14.70
2018-09-29T04:51:07.624Z,14.80
2018-09-29T04:53:36.428Z,14.80
2018-09-29T04:56:05.196Z,14.80
2018-09-29T04:58:34.031Z,14.80
2018-09-29T05:01:02.857Z,14.70
2018-09-29T05:03:31.667Z,14.70
2018-09-29T05:06:00.492Z,14.50
2018-09-29T05:08:29.312Z,14.60
2018-09-29T05:10:58.107Z,14.70
2018-09-29T05:13:26.917Z,14.70
2018-09-29T05:15:55.748Z,14.60
2018-09-29T05:18:24.556Z,14.50
2018-09-29T05:20:53.359Z,14.50
2018-09-29T05:23:22.260Z,14.50
2018-09-29T05:25:51.096Z,14.60
2018-09-29T05:28:19.931Z,14.60
2018-09-29T05:30:48.854Z,14.60
2018-09-29T05:33:17.642Z,14.60
2018-09-29T05:35:46.422Z,14.60
2018-09-29T05:38:15.234Z,14.70
2018-09-29T05:40:44.127Z,14.70
2018-09-29T05:43:12.952Z,14.70
2018-09-29T05:45:41.753Z,14.70
2018-09-29T05:48:10.601Z,14.70
2018-09-29T05:50:39.788Z,14.70
2018-09-29T05:53:08.670Z,14.70
2018-09-29T05:55:37.488Z,14.70
2018-09-29T05:58:06.277Z,14.60
2018-09-29T06:00:35.152Z,14.50
2018-09-29T06:03:03.930Z,14.40
2018-09-29T06:05:32.916Z,14.40
2018-09-29T06:08:01.624Z,14.30
2018-09-29T06:10:30.457Z,14.30
2018-09-29T06:12:59.268Z,14.50
2018-09-29T06:15:28.096Z,14.50
2018-09-29T06:17:56.919Z,14.60
2018-09-29T06:20:25.755Z,14.60
2018-09-29T06:22:54.647Z,14.70
2018-09-29T06:25:23.498Z,14.60
2018-09-29T06:27:52.290Z,14.60
2018-09-29T06:30:21.117Z,14.60
2018-09-29T06:32:49.936Z,14.60
2018-09-29T06:35:18.796Z,14.60
2018-09-29T06:37:47.598Z,14.50
2018-09-29T06:40:16.391Z,14.60
2018-09-29T06:42:45.381Z,14.70
2018-09-29T06:45:14.200Z,14.70
2018-09-29T06:47:43.169Z,14.60
2018-09-29T06:50:12.028Z,14.70
2018-09-29T06:52:40.955Z,14.60
2018-09-29T06:55:09.819Z,14.70
2018-09-29T06:57:38.693Z,14.80
2018-09-29T07:00:07.675Z,14.80
2018-09-29T07:02:36.479Z,14.80
2018-09-29T07:05:05.428Z,14.90
2018-09-29T07:07:35.071Z,14.90
2018-09-29T07:10:03.970Z,15.00
2018-09-29T07:12:32.834Z,15.00
2018-09-29T07:15:01.692Z,15.00
2018-09-29T07:17:30.538Z,15.10
2018-09-29T07:19:59.346Z,15.10
2018-09-29T07:22:28.351Z,15.20
2018-09-29T07:24:57.170Z,15.20
2018-09-29T07:27:25.963Z,15.30
2018-09-29T07:29:54.768Z,15.30
2018-09-29T07:32:23.590Z,15.40
2018-09-29T07:34:52.372Z,15.40
2018-09-29T07:37:21.190Z,15.50
2018-09-29T07:39:50.034Z,15.50
2018-09-29T07:42:18.847Z,15.60
2018-09-29T07:44:47.716Z,15.60
2018-09-29T07:47:16.659Z,15.70
2018-09-29T07:49:45.476Z,15.70
2018-09-29T07:52:14.321Z,15.70
2018-09-29T07:54:43.162Z,15.70
2018-09-29T07:57:12.029Z,15.80
2018-09-29T07:59:41.027Z,15.80
2018-09-29T08:02:09.947Z,15.80
2018-09-29T08:04:38.773Z,15.80
2018-09-29T08:07:07.740Z,15.80
2018-09-29T08:09:36.624Z,15.80
2018-09-29T08:12:05.706Z,15.90
2018-09-29T08:14:34.688Z,15.90
2018-09-29T08:17:03.583Z,15.90
2018-09-29T08:19:32.416Z,16.00
2018-09-29T08:22:01.697Z,16.00
2018-09-29T08:24:30.635Z,16.00
2018-09-29T08:26:59.519Z,16.00
2018-09-29T08:29:28.453Z,16.10
2018-09-29T08:31:57.502Z,16.00
2018-09-29T08:34:26.400Z,16.00
2018-09-29T08:36:55.396Z,16.10
2018-09-29T08:39:24.238Z,16.10
2018-09-29T08:41:59.447Z,16.20
2018-09-29T08:44:28.324Z,16.20
2018-09-29T08:46:57.177Z,16.20
2018-09-29T08:49:26.045Z,16.20
2018-09-29T08:51:54.991Z,16.30
2018-09-29T08:54:23.801Z,16.30
2018-09-29T08:56:52.649Z,16.30
2018-09-29T08:59:21.703Z,16.40
2018-09-29T09:01:50.705Z,16.50
2018-09-29T09:04:19.476Z,16.50
2018-09-29T09:06:48.817Z,16.50
2018-09-29T09:09:18.271Z,16.60
2018-09-29T09:11:47.135Z,16.60
2018-09-29T09:14:16.058Z,16.60
2018-09-29T09:16:44.962Z,16.70
2018-09-29T09:19:14.096Z,16.70
2018-09-29T09:21:43.005Z,16.70
2018-09-29T09:24:12.082Z,16.70
2018-09-29T09:26:40.911Z,16.80
2018-09-29T09:29:09.792Z,16.90
2018-09-29T09:31:38.592Z,16.90
2018-09-29T09:34:07.369Z,17.00
2018-09-29T09:36:36.204Z,17.10
2018-09-29T09:39:07.269Z,17.10
2018-09-29T09:41:36.057Z,17.20
2018-09-29T09:44:04.964Z,17.20
2018-09-29T09:46:33.772Z,17.30
2018-09-29T09:49:02.743Z,17.30
2018-09-29T09:51:31.551Z,17.40
2018-09-29T09:54:00.492Z,17.50
2018-09-29T09:56:29.302Z,17.50
2018-09-29T09:58:58.248Z,17.60
2018-09-29T10:01:32.332Z,17.70
2018-09-29T10:04:01.254Z,17.70
2018-09-29T10:06:30.140Z,17.80
2018-09-29T10:08:59.445Z,17.90
2018-09-29T10:11:28.301Z,17.90
2018-09-29T10:13:57.188Z,18.00
2018-09-29T10:16:26.270Z,18.10
2018-09-29T10:18:55.033Z,18.20
2018-09-29T10:21:23.876Z,18.20
2018-09-29T10:23:52.687Z,18.20
2018-09-29T10:26:21.532Z,18.30
2018-09-29T10:28:50.354Z,18.40
2018-09-29T10:31:19.186Z,18.40
2018-09-29T10:33:48.009Z,18.50
2018-09-29T10:36:16.902Z,18.60
2018-09-29T10:38:45.725Z,18.70
2018-09-29T10:41:14.550Z,18.80
2018-09-29T10:43:43.318Z,18.90
2018-09-29T10:46:12.133Z,19.00
2018-09-29T10:48:40.949Z,19.00
2018-09-29T10:51:09.827Z,19.10
2018-09-29T10:53:38.673Z,19.10
2018-09-29T10:56:07.476Z,19.20
2018-09-29T10:58:36.248Z,19.30
2018-09-29T11:01:05.081Z,19.30
2018-09-29T11:03:34.263Z,19.40
2018-09-29T11:06:03.151Z,19.50
2018-09-29T11:08:31.978Z,19.60
2018-09-29T11:11:00.832Z,19.70
2018-09-29T11:13:29.660Z,19.80
2018-09-29T11:15:58.539Z,19.80
2018-09-29T11:18:27.385Z,19.90
2018-09-29T11:20:56.270Z,20.00
2018-09-29T11:23:25.051Z,20.00
2018-09-29T11:25:53.896Z,20.10
2018-09-29T11:28:23.164Z,20.20
2018-09-29T11:30:52.089Z,20.30
2018-09-29T11:33:20.845Z,20.40
2018-09-29T11:35:49.666Z,20.50
2018-09-29T11:38:18.474Z,20.60
2018-09-29T11:40:47.298Z,20.70
2018-09-29T11:43:16.070Z,20.80
2018-09-29T11:45:44.933Z,20.90
2018-09-29T11:48:13.711Z,21.00
2018-09-29T11:50:42.537Z,21.00
2018-09-29T11:53:11.389Z,21.10
2018-09-29T11:55:40.285Z,21.20
2018-09-29T11:58:09.105Z,21.30
2018-09-29T12:00:37.946Z,21.40
2018-09-29T12:03:06.874Z,21.40
2018-09-29T12:05:35.829Z,21.50
2018-09-29T12:08:04.689Z,21.60
2018-09-29T12:10:33.537Z,21.70
2018-09-29T12:13:02.352Z,21.80
2018-09-29T12:15:31.204Z,21.90
2018-09-29T12:18:00.017Z,22.00
2018-09-29T12:20:28.915Z,22.00
2018-09-29T12:22:57.729Z,22.10
2018-09-29T12:25:26.508Z,22.20
2018-09-29T12:27:55.331Z,22.30
2018-09-29T12:30:24.236Z,22.40
2018-09-29T12:32:53.025Z,22.40
2018-09-29T12:35:21.865Z,22.50
2018-09-29T12:37:50.752Z,22.60
2018-09-29T12:40:19.503Z,22.70
2018-09-29T12:42:48.309Z,22.70
2018-09-29T12:45:17.136Z,22.80
2018-09-29T12:47:45.941Z,22.90
2018-09-29T12:50:14.922Z,22.90
2018-09-29T12:52:43.651Z,23.00
2018-09-29T12:55:12.554Z,23.00
2018-09-29T12:57:41.384Z,23.10
2018-09-29T13:00:10.219Z,23.20
2018-09-29T13:02:39.042Z,23.30
2018-09-29T13:05:07.957Z,23.30
2018-09-29T13:07:36.830Z,23.40
2018-09-29T13:10:05.785Z,23.40
2018-09-29T13:12:34.702Z,23.50
2018-09-29T13:15:03.545Z,23.50
2018-09-29T13:17:32.586Z,23.50
2018-09-29T13:20:01.459Z,23.50
2018-09-29T13:22:30.284Z,23.60
2018-09-29T13:24:59.123Z,23.70
2018-09-29T13:27:28.313Z,23.70
2018-09-29T13:29:57.180Z,23.70
2018-09-29T13:32:26.037Z,23.80
2018-09-29T13:34:54.891Z,23.70
2018-09-29T13:37:23.683Z,23.80
2018-09-29T13:39:52.524Z,23.80
2018-09-29T13:42:21.327Z,23.90
2018-09-29T13:44:50.145Z,23.90
2018-09-29T13:47:18.928Z,23.90
2018-09-29T13:49:47.765Z,23.90
2018-09-29T13:52:16.583Z,23.90
2018-09-29T13:54:45.421Z,23.90
2018-09-29T13:57:14.249Z,23.90
2018-09-29T13:59:43.124Z,24.00
2018-09-29T14:02:11.979Z,24.00
2018-09-29T14:04:40.812Z,24.00
2018-09-29T14:07:09.658Z,24.10
2018-09-29T14:09:38.492Z,24.00
2018-09-29T14:12:07.657Z,24.10
2018-09-29T14:14:43.303Z,24.10
2018-09-29T14:17:12.088Z,24.00
2018-09-29T14:19:40.908Z,24.00
2018-09-29T14:22:09.809Z,23.90
2018-09-29T14:24:38.689Z,23.90
2018-09-29T14:27:07.509Z,24.00
2018-09-29T14:29:36.315Z,23.90
2018-09-29T14:32:05.218Z,23.90
2018-09-29T14:34:34.011Z,24.00
2018-09-29T14:37:02.849Z,23.90
2018-09-29T14:39:31.653Z,23.90
2018-09-29T14:42:00.559Z,23.90
2018-09-29T14:44:29.313Z,23.90
2018-09-29T14:46:58.138Z,23.90
2018-09-29T14:49:26.965Z,23.80
2018-09-29T14:51:55.817Z,23.80
2018-09-29T14:54:24.643Z,23.80
2018-09-29T14:56:53.438Z,23.80
2018-09-29T14:59:22.274Z,23.80
2018-09-29T15:01:51.101Z,23.70
2018-09-29T15:04:20.000Z,23.70
2018-09-29T15:06:48.832Z,23.60
2018-09-29T15:09:17.678Z,23.60
2018-09-29T15:11:46.485Z,23.60
2018-09-29T15:14:15.392Z,23.60
2018-09-29T15:16:44.233Z,23.50
2018-09-29T15:19:13.049Z,23.50
2018-09-29T15:21:41.909Z,23.40
2018-09-29T15:24:10.740Z,23.40
2018-09-29T15:26:39.613Z,23.40
2018-09-29T15:29:08.468Z,23.30
2018-09-29T15:31:37.276Z,23.20
2018-09-29T15:34:06.203Z,23.20
2018-09-29T15:36:35.081Z,23.10
2018-09-29T15:39:05.700Z,23.00
2018-09-29T15:41:34.568Z,22.90
2018-09-29T15:44:03.432Z,22.90
2018-09-29T15:46:32.261Z,22.80
2018-09-29T15:49:01.094Z,22.80
2018-09-29T15:51:30.028Z,22.80
2018-09-29T15:53:58.843Z,22.70
2018-09-29T15:56:27.721Z,22.70
2018-09-29T15:58:56.564Z,22.50
2018-09-29T16:01:25.688Z,22.50
2018-09-29T16:03:54.519Z,22.30
2018-09-29T16:06:23.361Z,22.30
2018-09-29T16:08:52.252Z,22.20
2018-09-29T16:11:21.097Z,22.00
2018-09-29T16:13:49.923Z,21.90
2018-09-29T16:16:18.749Z,21.90
2018-09-29T16:18:47.604Z,21.80
2018-09-29T16:21:16.754Z,21.60
2018-09-29T16:23:45.576Z,21.50
2018-09-29T16:26:14.412Z,21.40
2018-09-29T16:28:43.233Z,21.40
2018-09-29T16:31:12.116Z,21.30
2018-09-29T16:33:40.951Z,21.30
2018-09-29T16:36:09.807Z,21.20
2018-09-29T16:38:38.660Z,21.00
2018-09-29T16:41:08.396Z,20.90
2018-09-29T16:43:37.283Z,20.80
2018-09-29T16:46:06.639Z,20.70
2018-09-29T16:48:35.477Z,20.60
2018-09-29T16:51:04.292Z,20.50
2018-09-29T16:53:33.125Z,20.40
2018-09-29T16:56:01.933Z,20.30
2018-09-29T16:58:30.756Z,20.20
2018-09-29T17:00:59.558Z,20.10
2018-09-29T17:03:28.401Z,20.00
2018-09-29T17:05:57.235Z,19.90
2018-09-29T17:08:26.031Z,19.80
2018-09-29T17:10:54.867Z,19.70
2018-09-29T17:13:23.694Z,19.70
2018-09-29T17:15:52.557Z,19.60
2018-09-29T17:18:21.392Z,19.50
2018-09-29T17:20:50.233Z,19.40
2018-09-29T17:23:19.078Z,19.40
2018-09-29T17:25:48.024Z,19.30
2018-09-29T17:28:16.835Z,19.20
2018-09-29T17:30:45.653Z,19.10
2018-09-29T17:33:14.472Z,19.00
2018-09-29T17:35:43.400Z,18.90
2018-09-29T17:38:12.311Z,18.80
2018-09-29T17:40:41.190Z,18.80
2018-09-29T17:43:10.081Z,18.70
2018-09-29T17:45:39.009Z,18.70
2018-09-29T17:48:07.930Z,18.60
2018-09-29T17:50:36.802Z,18.40
2018-09-29T17:53:05.701Z,18.40
2018-09-29T17:55:34.608Z,18.30
2018-09-29T17:58:04.345Z,18.20
2018-09-29T18:00:33.208Z,18.20
2018-09-29T18:03:01.993Z,18.10
2018-09-29T18:05:30.865Z,18.00
2018-09-29T18:07:59.681Z,18.00
2018-09-29T18:10:28.538Z,17.90
2018-09-29T18:12:57.369Z,17.90
2018-09-29T18:15:26.205Z,17.80
2018-09-29T18:17:55.044Z,17.80
2018-09-29T18:20:23.885Z,17.70
2018-09-29T18:22:52.717Z,17.70
2018-09-29T18:25:21.540Z,17.60
2018-09-29T18:27:50.341Z,17.60
2018-09-29T18:30:19.158Z,17.60
2018-09-29T18:32:47.981Z,17.60
2018-09-29T18:35:17.227Z,17.60
2018-09-29T18:37:46.067Z,17.50
2018-09-29T18:40:14.939Z,17.40
2018-09-29T18:42:43.921Z,17.40
2018-09-29T18:45:12.777Z,17.30
2018-09-29T18:47:41.594Z,17.20
2018-09-29T18:50:10.413Z,17.20
2018-09-29T18:52:39.199Z,17.20
2018-09-29T18:55:08.036Z,17.10
2018-09-29T18:57:36.837Z,17.00
2018-09-29T19:00:05.959Z,16.90
2018-09-29T19:02:34.772Z,17.00
2018-09-29T19:05:03.613Z,16.90
2018-09-29T19:07:32.455Z,16.90
2018-09-29T19:10:01.256Z,16.90
2018-09-29T19:13:04.890Z,16.90
2018-09-29T19:15:33.872Z,16.90
2018-09-29T19:18:02.693Z,16.90
2018-09-29T19:20:31.574Z,16.90
2018-09-29T19:23:00.433Z,16.80
2018-09-29T19:25:29.328Z,16.80
2018-09-29T19:27:58.156Z,16.80
2018-09-29T19:30:27.001Z,16.80
2018-09-29T19:32:55.850Z,16.80
2018-09-29T19:35:24.686Z,16.70
2018-09-29T19:37:53.538Z,16.70
2018-09-29T19:40:22.444Z,16.70
2018-09-29T19:42:51.316Z,16.70
2018-09-29T19:45:20.144Z,16.60
2018-09-29T19:47:49.053Z,16.60
2018-09-29T19:50:17.972Z,16.60
2018-09-29T19:52:46.821Z,16.60
2018-09-29T19:55:15.713Z,16.60
2018-09-29T19:57:44.595Z,16.60
2018-09-29T20:00:13.417Z,16.50
2018-09-29T20:02:42.236Z,16.40
2018-09-29T20:05:11.112Z,16.40
2018-09-29T20:07:39.897Z,16.40
2018-09-29T20:10:08.928Z,16.40
2018-09-29T20:12:37.758Z,16.40
2018-09-29T20:15:06.733Z,16.40
2018-09-29T20:17:35.553Z,16.40
2018-09-29T20:20:04.441Z,16.30
2018-09-29T20:22:33.261Z,16.30
2018-09-29T20:25:02.156Z,16.30
2018-09-29T20:27:31.062Z,16.30
2018-09-29T20:29:59.906Z,16.20
2018-09-29T20:32:28.765Z,16.10
2018-09-29T20:34:57.671Z,16.10
2018-09-29T20:37:26.528Z,16.00
2018-09-29T20:39:55.433Z,16.00
2018-09-29T20:42:24.248Z,15.90
2018-09-29T20:44:53.052Z,15.90
2018-09-29T20:47:21.920Z,15.90
2018-09-29T20:50:33.632Z,15.90
2018-09-29T20:53:02.530Z,15.90
2018-09-29T20:55:31.501Z,15.90
2018-09-29T20:58:00.333Z,15.90
2018-09-29T21:00:29.175Z,15.80
2018-09-29T21:02:58.080Z,15.80
2018-09-29T21:05:26.976Z,15.70
2018-09-29T21:07:55.780Z,15.70
2018-09-29T21:10:24.593Z,15.70
2018-09-29T21:12:53.417Z,15.60
2018-09-29T21:15:22.240Z,15.50
2018-09-29T21:17:51.062Z,15.50
2018-09-29T21:20:19.868Z,15.50
2018-09-29T21:22:48.663Z,15.40
2018-09-29T21:25:17.490Z,15.40
2018-09-29T21:27:46.341Z,15.40
2018-09-29T21:30:15.198Z,15.40
2018-09-29T21:32:44.022Z,15.30
2018-09-29T21:35:12.919Z,15.30
2018-09-29T21:37:41.703Z,15.30
2018-09-29T21:40:10.535Z,15.20
2018-09-29T21:42:39.378Z,15.10
2018-09-29T21:45:08.197Z,15.10
2018-09-29T21:47:36.993Z,15.10
2018-09-29T21:50:05.880Z,15.00
2018-09-29T21:52:34.667Z,15.00
2018-09-29T21:55:03.569Z,15.00
2018-09-29T21:57:32.329Z,14.90
2018-09-29T22:00:01.166Z,14.90
2018-09-29T22:02:29.989Z,14.80
2018-09-29T22:04:58.778Z,14.80
2018-09-29T22:07:27.587Z,14.80
2018-09-29T22:09:56.406Z,14.80
2018-09-29T22:12:25.191Z,14.60
2018-09-29T22:14:53.976Z,14.60
2018-09-29T22:17:22.759Z,14.50
2018-09-29T22:19:51.557Z,14.50
2018-09-29T22:22:20.377Z,14.40
2018-09-29T22:24:49.175Z,14.40
2018-09-29T22:27:17.961Z,14.40
2018-09-29T22:29:46.792Z,14.30
2018-09-29T22:32:16.513Z,14.30
2018-09-29T22:34:45.301Z,14.20
2018-09-29T22:37:14.093Z,14.20
2018-09-29T22:39:42.873Z,14.20
2018-09-29T22:42:11.692Z,14.10
2018-09-29T22:44:40.521Z,14.00
2018-09-29T22:47:09.328Z,13.90
2018-09-29T22:49:38.167Z,13.90
2018-09-29T22:52:07.278Z,13.90
2018-09-29T22:54:36.102Z,13.80
2018-09-29T22:57:04.978Z,13.80
2018-09-29T22:59:33.802Z,13.80
2018-09-29T23:02:02.582Z,13.80
2018-09-29T23:04:31.368Z,13.70
2018-09-29T23:07:00.154Z,13.70
2018-09-29T23:09:28.956Z,13.70
2018-09-29T23:11:57.745Z,13.70
2018-09-29T23:14:26.552Z,13.60
2018-09-29T23:16:55.335Z,13.60
2018-09-29T23:19:24.107Z,13.60
2018-09-29T23:21:52.923Z,13.50
2018-09-29T23:24:21.704Z,13.50
2018-09-29T23:26:50.497Z,13.50
2018-09-29T23:29:19.283Z,13.40
2018-09-29T23:31:48.055Z,13.40
2018-09-29T23:34:16.892Z,13.40
2018-09-29T23:36:45.684Z,13.30
2018-09-29T23:39:14.514Z,13.30
2018-09-29T23:41:43.273Z,13.30
2018-09-29T23:44:12.129Z,13.20
2018-09-29T23:46:40.916Z,13.20
2018-09-29T23:49:09.733Z,13.20
2018-09-29T23:51:38.511Z,13.20
2018-09-29T23:54:07.320Z,13.20
2018-09-29T23:56:36.138Z,13.20
2018-09-29T23:59:04.976Z,13.20
